Terminal Aerodrome Forecast
Issued by NWS

Home | Current Version | Previous Version | Text Only | Print | Product List | Glossary On
Versions: 1 2 3 4 5 6 7 8 9 10 11 12 13 14 15 16 17 18
000
FTUS41 KGYX 272321
TAFLEB
TAF
KLEB 272321Z 2800/2824 24005KT 6SM -SHRA BKN050
     FM280100 32003KT P6SM SCT050 BKN120
     FM280700 00000KT 2SM BR BKN002
     FM280800 00000KT 1/2SM FG VV001
     FM281200 32003KT 2SM BR SCT002
     FM281300 32008G18KT P6SM BKN050
     FM282200 32005KT P6SM SCT050=

USA.gov is the U.S. government's official web portal to all federal, state and local government web resources and services.